Main page
METAR-TAF:

METAR-TAF

Airports :

Iowa City Municipal Airport

Iowa City, Iowa, United States

latitude: 41-37-58N, longitude: 091-32-35W, elevation: 666 ft

Current weather observation

The report was made 1 hour and 8 minutes ago, at 20:52 UTC
Wind 15 mph from the Southeast with gusts up to 22 mph
Temperature 59°F
Humidity 44%
Pressure 30.01 in. Hg
Visibility: 10 miles
Clear sky

METAR: KIOW 012052Z AUTO 14013G19KT 10SM CLR 15/03 A3001 RMK AO2 SLP164 T01500028 56018

Time: 17:00 (22:00 UTC)


TAF: missing

Weather observations and forecasts of more than 4000 airports (METAR and TAF reports).

The available stations are represented by yellow and red dots on the map.

Hover mouse over dot to see the name of the station.

Then click to see weather observations and forecasts.

To change the map : click on the green buttons with a black cross to zoom in, on the green button with a dash to zoom out, or on the green arrows for adjacent maps.


METAR-TAF: